sensor_id;sensor_type;location;lat;lon;timestamp;noise_LAeq;noise_LA_min;noise_LA_max;noise_LA01;noise_LA95
71030;Laerm;63723;51.436;5.976;2023-11-21T00:00:02;49.41;48.25;50.42;;
71030;Laerm;63723;51.436;5.976;2023-11-21T00:00:13;49.44;48.10;50.28;;
71030;Laerm;63723;51.436;5.976;2023-11-21T00:00:23;49.45;48.47;50.71;;
71030;Laerm;63723;51.436;5.976;2023-11-21T00:00:34;49.44;48.50;50.34;;
71030;Laerm;63723;51.436;5.976;2023-11-21T00:00:44;49.50;48.54;52.11;;
71030;Laerm;63723;51.436;5.976;2023-11-21T00:00:55;49.45;48.45;50.42;;
71030;Laerm;63723;51.436;5.976;2023-11-21T00:01:06;49.47;48.54;50.46;;
71030;Laerm;63723;51.436;5.976;2023-11-21T00:01:18;49.46;48.38;50.57;;
71030;Laerm;63723;51.436;5.976;2023-11-21T00:01:28;49.48;48.42;50.52;;
71030;Laerm;63723;51.436;5.976;2023-11-21T00:01:39;49.45;48.25;50.63;;
71030;Laerm;63723;51.436;5.976;2023-11-21T00:01:49;49.47;48.07;50.59;;
71030;Laerm;63723;51.436;5.976;2023-11-21T00:01:59;49.52;48.43;54.20;;
71030;Laerm;63723;51.436;5.976;2023-11-21T00:02:09;49.44;48.37;50.44;;
71030;Laerm;63723;51.436;5.976;2023-11-21T00:02:20;49.48;48.35;51.47;;
71030;Laerm;63723;51.436;5.976;2023-11-21T00:02:30;49.43;48.27;50.65;;
71030;Laerm;63723;51.436;5.976;2023-11-21T00:02:41;49.41;48.46;50.22;;
71030;Laerm;63723;51.436;5.976;2023-11-21T00:02:51;49.45;48.25;50.45;;
71030;Laerm;63723;51.436;5.976;2023-11-21T00:03:01;49.43;48.19;50.59;;
71030;Laerm;63723;51.436;5.976;2023-11-21T00:03:12;49.46;48.28;51.94;;
71030;Laerm;63723;51.436;5.976;2023-11-21T00:03:24;49.48;48.30;51.23;;
71030;Laerm;63723;51.436;5.976;2023-11-21T00:03:35;49.44;48.46;50.72;;
71030;Laerm;63723;51.436;5.976;2023-11-21T00:03:45;49.48;48.41;50.52;;
71030;Laerm;63723;51.436;5.976;2023-11-21T00:03:56;49.42;48.39;50.59;;
71030;Laerm;63723;51.436;5.976;2023-11-21T00:04:06;49.46;48.39;50.41;;
71030;Laerm;63723;51.436;5.976;2023-11-21T00:04:17;49.42;48.35;50.65;;
71030;Laerm;63723;51.436;5.976;2023-11-21T00:04:27;49.46;48.41;50.53;;
71030;Laerm;63723;51.436;5.976;2023-11-21T00:04:37;49.47;48.55;50.58;;
71030;Laerm;63723;51.436;5.976;2023-11-21T00:04:48;49.49;48.24;52.04;;
71030;Laerm;63723;51.436;5.976;2023-11-21T00:04:58;49.47;48.41;50.59;;
71030;Laerm;63723;51.436;5.976;2023-11-21T00:05:09;49.45;48.41;50.47;;
71030;Laerm;63723;51.436;5.976;2023-11-21T00:05:20;49.46;48.54;50.45;;
71030;Laerm;63723;51.436;5.976;2023-11-21T00:05:33;49.48;48.22;50.60;;
71030;Laerm;63723;51.436;5.976;2023-11-21T00:05:43;49.51;48.48;50.54;;
71030;Laerm;63723;51.436;5.976;2023-11-21T00:05:53;49.53;48.42;51.01;;
71030;Laerm;63723;51.436;5.976;2023-11-21T00:06:04;49.50;48.33;51.31;;
71030;Laerm;63723;51.436;5.976;2023-11-21T00:06:14;49.49;48.50;50.61;;
71030;Laerm;63723;51.436;5.976;2023-11-21T00:06:25;49.50;48.46;50.81;;
71030;Laerm;63723;51.436;5.976;2023-11-21T00:06:35;49.47;48.34;52.18;;
71030;Laerm;63723;51.436;5.976;2023-11-21T00:06:45;49.49;48.32;50.45;;
71030;Laerm;63723;51.436;5.976;2023-11-21T00:06:57;49.45;48.32;50.43;;
71030;Laerm;63723;51.436;5.976;2023-11-21T00:07:07;49.50;48.29;51.33;;
71030;Laerm;63723;51.436;5.976;2023-11-21T00:07:17;49.47;48.55;50.45;;
71030;Laerm;63723;51.436;5.976;2023-11-21T00:07:27;49.45;48.44;50.30;;
71030;Laerm;63723;51.436;5.976;2023-11-21T00:07:38;49.46;48.27;50.65;;
71030;Laerm;63723;51.436;5.976;2023-11-21T00:07:48;49.47;48.17;50.76;;
71030;Laerm;63723;51.436;5.976;2023-11-21T00:07:58;49.45;48.38;50.64;;
71030;Laerm;63723;51.436;5.976;2023-11-21T00:08:09;49.45;48.38;50.58;;
71030;Laerm;63723;51.436;5.976;2023-11-21T00:08:20;49.48;48.17;50.75;;
71030;Laerm;63723;51.436;5.976;2023-11-21T00:08:30;49.50;48.53;50.51;;
71030;Laerm;63723;51.436;5.976;2023-11-21T00:08:41;49.55;48.35;50.87;;
71030;Laerm;63723;51.436;5.976;2023-11-21T00:08:51;49.52;48.34;50.67;;
71030;Laerm;63723;51.436;5.976;2023-11-21T00:09:01;49.54;48.61;52.17;;
71030;Laerm;63723;51.436;5.976;2023-11-21T00:09:12;49.50;48.39;50.44;;
71030;Laerm;63723;51.436;5.976;2023-11-21T00:09:25;49.53;48.20;50.60;;
71030;Laerm;63723;51.436;5.976;2023-11-21T00:09:35;49.50;48.25;50.53;;
71030;Laerm;63723;51.436;5.976;2023-11-21T00:09:46;49.51;48.47;50.55;;
71030;Laerm;63723;51.436;5.976;2023-11-21T00:09:56;49.60;48.31;51.66;;
71030;Laerm;63723;51.436;5.976;2023-11-21T00:10:07;49.50;48.64;51.81;;
71030;Laerm;63723;51.436;5.976;2023-11-21T00:10:18;49.52;48.32;51.07;;
71030;Laerm;63723;51.436;5.976;2023-11-21T00:10:28;49.54;48.53;50.62;;
71030;Laerm;63723;51.436;5.976;2023-11-21T00:10:38;49.49;48.62;50.51;;
71030;Laerm;63723;51.436;5.976;2023-11-21T00:10:49;49.53;48.26;50.70;;
71030;Laerm;63723;51.436;5.976;2023-11-21T00:10:59;49.53;48.55;50.63;;
71030;Laerm;63723;51.436;5.976;2023-11-21T00:11:10;49.50;48.42;52.23;;
71030;Laerm;63723;51.436;5.976;2023-11-21T00:11:20;49.50;48.45;50.90;;
71030;Laerm;63723;51.436;5.976;2023-11-21T00:11:31;49.49;48.31;50.43;;
71030;Laerm;63723;51.436;5.976;2023-11-21T00:11:41;49.51;48.39;51.47;;
71030;Laerm;63723;51.436;5.976;2023-11-21T00:11:52;49.50;48.16;50.35;;
71030;Laerm;63723;51.436;5.976;2023-11-21T00:12:02;49.49;48.29;50.74;;
71030;Laerm;63723;51.436;5.976;2023-11-21T00:12:13;49.49;48.40;50.69;;
71030;Laerm;63723;51.436;5.976;2023-11-21T00:12:24;49.51;48.46;50.51;;
71030;Laerm;63723;51.436;5.976;2023-11-21T00:12:34;49.50;48.26;50.40;;
71030;Laerm;63723;51.436;5.976;2023-11-21T00:12:45;49.45;48.16;50.55;;
71030;Laerm;63723;51.436;5.976;2023-11-21T00:12:58;49.50;48.43;50.51;;
71030;Laerm;63723;51.436;5.976;2023-11-21T00:13:08;49.53;48.28;50.63;;
71030;Laerm;63723;51.436;5.976;2023-11-21T00:13:18;49.47;48.37;50.49;;
71030;Laerm;63723;51.436;5.976;2023-11-21T00:13:29;49.54;48.25;50.52;;
71030;Laerm;63723;51.436;5.976;2023-11-21T00:13:39;49.42;48.25;50.23;;
71030;Laerm;63723;51.436;5.976;2023-11-21T00:13:49;49.50;48.33;50.52;;
71030;Laerm;63723;51.436;5.976;2023-11-21T00:14:00;49.53;48.40;51.51;;
71030;Laerm;63723;51.436;5.976;2023-11-21T00:14:13;49.47;48.21;50.53;;
71030;Laerm;63723;51.436;5.976;2023-11-21T00:14:25;49.57;48.39;50.72;;
71030;Laerm;63723;51.436;5.976;2023-11-21T00:14:38;49.43;48.50;50.48;;
71030;Laerm;63723;51.436;5.976;2023-11-21T00:14:48;49.45;48.40;50.48;;
71030;Laerm;63723;51.436;5.976;2023-11-21T00:14:58;49.45;48.27;50.38;;
71030;Laerm;63723;51.436;5.976;2023-11-21T00:15:09;49.45;48.50;50.34;;
71030;Laerm;63723;51.436;5.976;2023-11-21T00:15:20;49.41;48.01;50.50;;
71030;Laerm;63723;51.436;5.976;2023-11-21T00:15:31;49.47;48.24;50.62;;
71030;Laerm;63723;51.436;5.976;2023-11-21T00:15:42;49.47;48.26;50.76;;
71030;Laerm;63723;51.436;5.976;2023-11-21T00:15:52;49.42;48.03;50.69;;
71030;Laerm;63723;51.436;5.976;2023-11-21T00:16:02;49.46;48.48;52.33;;
71030;Laerm;63723;51.436;5.976;2023-11-21T00:16:14;49.44;48.14;50.43;;
71030;Laerm;63723;51.436;5.976;2023-11-21T00:16:24;49.74;48.50;51.02;;
71030;Laerm;63723;51.436;5.976;2023-11-21T00:16:35;50.00;48.54;50.87;;
71030;Laerm;63723;51.436;5.976;2023-11-21T00:16:45;49.95;48.80;51.22;;
71030;Laerm;63723;51.436;5.976;2023-11-21T00:16:55;49.94;48.97;50.95;;
71030;Laerm;63723;51.436;5.976;2023-11-21T00:17:06;49.71;48.60;50.60;;
71030;Laerm;63723;51.436;5.976;2023-11-21T00:17:16;49.75;48.94;50.90;;
71030;Laerm;63723;51.436;5.976;2023-11-21T00:17:26;49.48;48.61;50.44;;
71030;Laerm;63723;51.436;5.976;2023-11-21T00:17:37;49.49;48.36;51.00;;
71030;Laerm;63723;51.436;5.976;2023-11-21T00:17:47;49.50;48.22;52.74;;
71030;Laerm;63723;51.436;5.976;2023-11-21T00:17:58;49.48;48.66;50.62;;
71030;Laerm;63723;51.436;5.976;2023-11-21T00:18:08;49.46;48.50;50.52;;
71030;Laerm;63723;51.436;5.976;2023-11-21T00:18:18;49.50;48.27;50.88;;
71030;Laerm;63723;51.436;5.976;2023-11-21T00:18:29;49.49;48.37;52.17;;
71030;Laerm;63723;51.436;5.976;2023-11-21T00:18:39;49.47;48.48;50.89;;
71030;Laerm;63723;51.436;5.976;2023-11-21T00:18:49;49.56;48.53;52.68;;
71030;Laerm;63723;51.436;5.976;2023-11-21T00:19:01;49.46;48.56;50.31;;
71030;Laerm;63723;51.436;5.976;2023-11-21T00:19:11;49.52;48.11;50.63;;
71030;Laerm;63723;51.436;5.976;2023-11-21T00:19:22;49.49;48.61;51.54;;
71030;Laerm;63723;51.436;5.976;2023-11-21T00:19:32;49.50;48.40;50.59;;
71030;Laerm;63723;51.436;5.976;2023-11-21T00:19:45;49.48;48.30;52.02;;
71030;Laerm;63723;51.436;5.976;2023-11-21T00:19:56;49.44;48.46;50.52;;
71030;Laerm;63723;51.436;5.976;2023-11-21T00:20:06;49.54;48.26;52.51;;
71030;Laerm;63723;51.436;5.976;2023-11-21T00:20:16;49.44;48.44;50.41;;
71030;Laerm;63723;51.436;5.976;2023-11-21T00:20:27;49.46;48.35;50.53;;
71030;Laerm;63723;51.436;5.976;2023-11-21T00:20:37;49.46;48.15;51.69;;
71030;Laerm;63723;51.436;5.976;2023-11-21T00:20:47;49.46;47.87;50.37;;
71030;Laerm;63723;51.436;5.976;2023-11-21T00:20:57;49.49;48.45;50.57;;
71030;Laerm;63723;51.436;5.976;2023-11-21T00:21:09;49.46;48.49;50.48;;
71030;Laerm;63723;51.436;5.976;2023-11-21T00:21:22;49.43;48.29;52.18;;
71030;Laerm;63723;51.436;5.976;2023-11-21T00:21:32;49.46;48.36;50.49;;
71030;Laerm;63723;51.436;5.976;2023-11-21T00:21:43;49.48;48.24;51.01;;
71030;Laerm;63723;51.436;5.976;2023-11-21T00:21:54;49.46;48.09;50.60;;
71030;Laerm;63723;51.436;5.976;2023-11-21T00:22:05;49.43;48.44;50.36;;
71030;Laerm;63723;51.436;5.976;2023-11-21T00:22:16;49.42;48.37;50.62;;
71030;Laerm;63723;51.436;5.976;2023-11-21T00:22:26;49.48;48.42;50.35;;
71030;Laerm;63723;51.436;5.976;2023-11-21T00:22:36;49.49;48.66;50.50;;
71030;Laerm;63723;51.436;5.976;2023-11-21T00:22:47;49.52;48.29;50.59;;
71030;Laerm;63723;51.436;5.976;2023-11-21T00:22:57;49.43;48.53;50.29;;
71030;Laerm;63723;51.436;5.976;2023-11-21T00:23:09;49.44;48.29;50.42;;
71030;Laerm;63723;51.436;5.976;2023-11-21T00:23:19;49.51;48.47;50.63;;
71030;Laerm;63723;51.436;5.976;2023-11-21T00:23:30;49.76;48.71;50.80;;
71030;Laerm;63723;51.436;5.976;2023-11-21T00:23:40;49.71;48.59;50.90;;
71030;Laerm;63723;51.436;5.976;2023-11-21T00:23:50;49.79;48.56;50.83;;
71030;Laerm;63723;51.436;5.976;2023-11-21T00:24:01;49.56;48.44;50.73;;
71030;Laerm;63723;51.436;5.976;2023-11-21T00:24:11;49.41;48.30;51.86;;
71030;Laerm;63723;51.436;5.976;2023-11-21T00:24:24;49.41;48.51;50.57;;
71030;Laerm;63723;51.436;5.976;2023-11-21T00:24:34;49.40;48.35;50.22;;
71030;Laerm;63723;51.436;5.976;2023-11-21T00:24:45;49.46;47.96;50.38;;
71030;Laerm;63723;51.436;5.976;2023-11-21T00:24:55;49.44;48.40;50.33;;
71030;Laerm;63723;51.436;5.976;2023-11-21T00:25:06;49.44;48.26;50.58;;
71030;Laerm;63723;51.436;5.976;2023-11-21T00:25:18;49.43;48.27;50.49;;
71030;Laerm;63723;51.436;5.976;2023-11-21T00:25:30;49.48;48.21;52.70;;
71030;Laerm;63723;51.436;5.976;2023-11-21T00:25:41;49.61;48.60;50.85;;
71030;Laerm;63723;51.436;5.976;2023-11-21T00:25:51;49.89;48.77;51.15;;
71030;Laerm;63723;51.436;5.976;2023-11-21T00:26:01;49.45;48.45;50.43;;
71030;Laerm;63723;51.436;5.976;2023-11-21T00:26:12;49.49;48.11;54.45;;
71030;Laerm;63723;51.436;5.976;2023-11-21T00:26:22;49.46;48.55;52.09;;
71030;Laerm;63723;51.436;5.976;2023-11-21T00:26:34;49.78;48.60;50.88;;
71030;Laerm;63723;51.436;5.976;2023-11-21T00:26:46;49.92;48.94;50.91;;
71030;Laerm;63723;51.436;5.976;2023-11-21T00:26:58;49.73;48.38;50.68;;
71030;Laerm;63723;51.436;5.976;2023-11-21T00:27:08;49.48;48.55;51.75;;
71030;Laerm;63723;51.436;5.976;2023-11-21T00:27:19;49.45;48.48;53.31;;
71030;Laerm;63723;51.436;5.976;2023-11-21T00:27:30;49.38;48.27;52.35;;
71030;Laerm;63723;51.436;5.976;2023-11-21T00:27:41;49.43;48.30;52.22;;
71030;Laerm;63723;51.436;5.976;2023-11-21T00:27:51;49.43;48.30;50.63;;
71030;Laerm;63723;51.436;5.976;2023-11-21T00:28:02;49.47;48.43;50.58;;
71030;Laerm;63723;51.436;5.976;2023-11-21T00:28:13;49.41;48.51;50.39;;
71030;Laerm;63723;51.436;5.976;2023-11-21T00:28:24;49.44;48.41;50.69;;
71030;Laerm;63723;51.436;5.976;2023-11-21T00:28:35;49.45;48.26;50.41;;
71030;Laerm;63723;51.436;5.976;2023-11-21T00:28:45;49.44;48.53;52.34;;
71030;Laerm;63723;51.436;5.976;2023-11-21T00:28:55;49.41;48.25;50.51;;
71030;Laerm;63723;51.436;5.976;2023-11-21T00:29:05;49.44;48.24;50.60;;
71030;Laerm;63723;51.436;5.976;2023-11-21T00:29:19;49.43;48.43;50.48;;
71030;Laerm;63723;51.436;5.976;2023-11-21T00:29:29;49.45;48.23;50.52;;
71030;Laerm;63723;51.436;5.976;2023-11-21T00:29:39;49.47;48.15;51.22;;
71030;Laerm;63723;51.436;5.976;2023-11-21T00:29:49;49.42;47.76;51.41;;
71030;Laerm;63723;51.436;5.976;2023-11-21T00:30:00;49.44;48.44;50.26;;
71030;Laerm;63723;51.436;5.976;2023-11-21T00:30:10;49.44;48.36;50.36;;
71030;Laerm;63723;51.436;5.976;2023-11-21T00:30:21;49.47;48.31;52.65;;
71030;Laerm;63723;51.436;5.976;2023-11-21T00:30:32;49.45;48.24;51.99;;
71030;Laerm;63723;51.436;5.976;2023-11-21T00:30:42;49.44;48.26;50.51;;
71030;Laerm;63723;51.436;5.976;2023-11-21T00:30:52;49.48;48.43;52.32;;
71030;Laerm;63723;51.436;5.976;2023-11-21T00:31:03;49.45;48.26;50.81;;
71030;Laerm;63723;51.436;5.976;2023-11-21T00:31:14;49.45;48.39;52.50;;
71030;Laerm;63723;51.436;5.976;2023-11-21T00:31:24;49.42;48.38;50.37;;
71030;Laerm;63723;51.436;5.976;2023-11-21T00:31:34;49.49;48.21;50.56;;
71030;Laerm;63723;51.436;5.976;2023-11-21T00:31:46;49.48;48.18;52.51;;
71030;Laerm;63723;51.436;5.976;2023-11-21T00:31:56;49.46;48.20;51.14;;
71030;Laerm;63723;51.436;5.976;2023-11-21T00:32:07;49.44;48.47;50.48;;
71030;Laerm;63723;51.436;5.976;2023-11-21T00:32:17;49.44;47.77;50.52;;
71030;Laerm;63723;51.436;5.976;2023-11-21T00:32:28;49.48;48.14;50.85;;
71030;Laerm;63723;51.436;5.976;2023-11-21T00:32:38;49.48;48.32;51.88;;
71030;Laerm;63723;51.436;5.976;2023-11-21T00:32:48;49.49;48.42;52.59;;
71030;Laerm;63723;51.436;5.976;2023-11-21T00:32:58;49.49;48.45;52.19;;
71030;Laerm;63723;51.436;5.976;2023-11-21T00:33:09;49.43;48.35;50.81;;
71030;Laerm;63723;51.436;5.976;2023-11-21T00:33:19;49.44;48.32;50.98;;
71030;Laerm;63723;51.436;5.976;2023-11-21T00:33:29;49.49;48.54;51.90;;
71030;Laerm;63723;51.436;5.976;2023-11-21T00:33:39;49.46;48.36;50.67;;
71030;Laerm;63723;51.436;5.976;2023-11-21T00:33:50;49.45;48.07;50.55;;
71030;Laerm;63723;51.436;5.976;2023-11-21T00:34:00;49.45;48.28;50.51;;
71030;Laerm;63723;51.436;5.976;2023-11-21T00:34:13;49.49;48.24;50.46;;
71030;Laerm;63723;51.436;5.976;2023-11-21T00:34:23;49.48;48.33;50.62;;
71030;Laerm;63723;51.436;5.976;2023-11-21T00:34:34;49.47;48.51;50.33;;
71030;Laerm;63723;51.436;5.976;2023-11-21T00:34:44;49.43;48.57;50.61;;
71030;Laerm;63723;51.436;5.976;2023-11-21T00:34:54;49.45;48.35;50.50;;
71030;Laerm;63723;51.436;5.976;2023-11-21T00:35:05;49.42;48.42;50.79;;
71030;Laerm;63723;51.436;5.976;2023-11-21T00:35:16;49.49;48.42;51.82;;
71030;Laerm;63723;51.436;5.976;2023-11-21T00:35:26;49.51;48.40;51.39;;
71030;Laerm;63723;51.436;5.976;2023-11-21T00:35:36;49.48;48.31;51.47;;
71030;Laerm;63723;51.436;5.976;2023-11-21T00:35:46;49.46;48.21;50.51;;
71030;Laerm;63723;51.436;5.976;2023-11-21T00:35:56;49.48;48.39;52.91;;
71030;Laerm;63723;51.436;5.976;2023-11-21T00:36:07;49.45;48.52;50.65;;
71030;Laerm;63723;51.436;5.976;2023-11-21T00:36:19;49.46;48.35;51.98;;
71030;Laerm;63723;51.436;5.976;2023-11-21T00:36:29;49.46;48.52;50.83;;
71030;Laerm;63723;51.436;5.976;2023-11-21T00:36:40;49.44;48.15;52.52;;
71030;Laerm;63723;51.436;5.976;2023-11-21T00:36:50;49.43;48.41;50.47;;
71030;Laerm;63723;51.436;5.976;2023-11-21T00:37:00;49.41;48.33;50.75;;
71030;Laerm;63723;51.436;5.976;2023-11-21T00:37:12;49.48;48.15;53.77;;
71030;Laerm;63723;51.436;5.976;2023-11-21T00:37:22;49.47;48.47;56.21;;
71030;Laerm;63723;51.436;5.976;2023-11-21T00:37:34;49.43;48.55;51.06;;
71030;Laerm;63723;51.436;5.976;2023-11-21T00:37:44;49.46;48.27;50.96;;
71030;Laerm;63723;51.436;5.976;2023-11-21T00:37:54;49.45;48.32;50.57;;
71030;Laerm;63723;51.436;5.976;2023-11-21T00:38:04;49.42;48.27;50.64;;
71030;Laerm;63723;51.436;5.976;2023-11-21T00:38:15;49.43;48.28;50.31;;
71030;Laerm;63723;51.436;5.976;2023-11-21T00:38:25;49.45;48.34;51.12;;
71030;Laerm;63723;51.436;5.976;2023-11-21T00:38:36;49.44;48.28;50.47;;
71030;Laerm;63723;51.436;5.976;2023-11-21T00:38:46;49.44;48.52;50.74;;
71030;Laerm;63723;51.436;5.976;2023-11-21T00:38:58;49.42;48.37;50.37;;
71030;Laerm;63723;51.436;5.976;2023-11-21T00:39:09;49.49;48.33;50.52;;
71030;Laerm;63723;51.436;5.976;2023-11-21T00:39:19;49.45;48.34;50.57;;
71030;Laerm;63723;51.436;5.976;2023-11-21T00:39:29;49.47;48.27;51.78;;
71030;Laerm;63723;51.436;5.976;2023-11-21T00:39:39;49.52;48.55;51.72;;
71030;Laerm;63723;51.436;5.976;2023-11-21T00:39:50;49.60;48.29;51.22;;
71030;Laerm;63723;51.436;5.976;2023-11-21T00:40:00;49.46;48.31;50.49;;
71030;Laerm;63723;51.436;5.976;2023-11-21T00:40:15;49.48;48.43;50.82;;
71030;Laerm;63723;51.436;5.976;2023-11-21T00:40:25;49.45;48.46;51.31;;
71030;Laerm;63723;51.436;5.976;2023-11-21T00:40:35;49.41;48.35;50.48;;
71030;Laerm;63723;51.436;5.976;2023-11-21T00:40:45;49.47;48.36;50.61;;
71030;Laerm;63723;51.436;5.976;2023-11-21T00:40:56;49.47;48.34;52.08;;
71030;Laerm;63723;51.436;5.976;2023-11-21T00:41:06;49.50;48.00;51.07;;
71030;Laerm;63723;51.436;5.976;2023-11-21T00:41:16;49.43;48.00;50.52;;
71030;Laerm;63723;51.436;5.976;2023-11-21T00:41:27;49.55;48.34;52.47;;
71030;Laerm;63723;51.436;5.976;2023-11-21T00:41:37;49.44;48.34;50.40;;
71030;Laerm;63723;51.436;5.976;2023-11-21T00:41:47;49.42;48.50;50.32;;
71030;Laerm;63723;51.436;5.976;2023-11-21T00:41:58;49.47;48.46;50.71;;
71030;Laerm;63723;51.436;5.976;2023-11-21T00:42:08;49.50;48.46;52.09;;
71030;Laerm;63723;51.436;5.976;2023-11-21T00:42:20;49.45;48.36;51.30;;
71030;Laerm;63723;51.436;5.976;2023-11-21T00:42:31;49.51;48.45;50.57;;
71030;Laerm;63723;51.436;5.976;2023-11-21T00:42:44;49.44;48.19;50.29;;
71030;Laerm;63723;51.436;5.976;2023-11-21T00:42:55;49.43;48.43;51.42;;
71030;Laerm;63723;51.436;5.976;2023-11-21T00:43:06;49.43;48.22;50.44;;
71030;Laerm;63723;51.436;5.976;2023-11-21T00:43:16;49.46;48.52;50.63;;
71030;Laerm;63723;51.436;5.976;2023-11-21T00:43:26;49.44;48.27;51.83;;
71030;Laerm;63723;51.436;5.976;2023-11-21T00:43:36;49.45;48.40;50.66;;
71030;Laerm;63723;51.436;5.976;2023-11-21T00:43:47;49.43;48.08;52.74;;
71030;Laerm;63723;51.436;5.976;2023-11-21T00:43:57;49.52;48.14;54.18;;
71030;Laerm;63723;51.436;5.976;2023-11-21T00:44:07;49.41;48.12;50.53;;
71030;Laerm;63723;51.436;5.976;2023-11-21T00:44:18;49.48;48.32;54.11;;
71030;Laerm;63723;51.436;5.976;2023-11-21T00:44:28;49.47;48.30;50.94;;
71030;Laerm;63723;51.436;5.976;2023-11-21T00:44:38;49.48;48.44;50.65;;
71030;Laerm;63723;51.436;5.976;2023-11-21T00:44:49;49.51;48.20;50.74;;
71030;Laerm;63723;51.436;5.976;2023-11-21T00:45:00;49.47;48.39;50.41;;
71030;Laerm;63723;51.436;5.976;2023-11-21T00:45:10;49.51;48.50;50.54;;
71030;Laerm;63723;51.436;5.976;2023-11-21T00:45:21;49.49;48.50;54.27;;
71030;Laerm;63723;51.436;5.976;2023-11-21T00:45:31;49.47;48.19;50.40;;
71030;Laerm;63723;51.436;5.976;2023-11-21T00:45:41;49.43;48.47;50.93;;
71030;Laerm;63723;51.436;5.976;2023-11-21T00:45:52;49.46;48.35;50.59;;
71030;Laerm;63723;51.436;5.976;2023-11-21T00:46:05;49.44;48.53;50.33;;
71030;Laerm;63723;51.436;5.976;2023-11-21T00:46:17;49.50;48.44;50.55;;
71030;Laerm;63723;51.436;5.976;2023-11-21T00:46:28;49.44;48.34;50.94;;
71030;Laerm;63723;51.436;5.976;2023-11-21T00:46:39;49.40;48.52;50.49;;
71030;Laerm;63723;51.436;5.976;2023-11-21T00:46:49;49.46;48.42;53.28;;
71030;Laerm;63723;51.436;5.976;2023-11-21T00:47:00;49.44;48.30;50.62;;
71030;Laerm;63723;51.436;5.976;2023-11-21T00:47:11;49.44;48.53;50.43;;
71030;Laerm;63723;51.436;5.976;2023-11-21T00:47:21;49.45;48.34;50.35;;
71030;Laerm;63723;51.436;5.976;2023-11-21T00:47:32;49.45;48.32;51.07;;
71030;Laerm;63723;51.436;5.976;2023-11-21T00:47:42;49.47;48.11;52.02;;
71030;Laerm;63723;51.436;5.976;2023-11-21T00:47:53;49.43;48.36;50.34;;
71030;Laerm;63723;51.436;5.976;2023-11-21T00:48:03;49.44;48.44;50.57;;
71030;Laerm;63723;51.436;5.976;2023-11-21T00:48:14;49.44;48.45;50.56;;
71030;Laerm;63723;51.436;5.976;2023-11-21T00:48:25;49.48;48.26;50.37;;
71030;Laerm;63723;51.436;5.976;2023-11-21T00:48:35;49.51;48.31;50.53;;
71030;Laerm;63723;51.436;5.976;2023-11-21T00:48:45;49.47;48.29;50.50;;
71030;Laerm;63723;51.436;5.976;2023-11-21T00:48:55;49.46;48.44;50.82;;
71030;Laerm;63723;51.436;5.976;2023-11-21T00:49:06;49.53;48.29;50.39;;
71030;Laerm;63723;51.436;5.976;2023-11-21T00:49:16;49.51;48.64;50.65;;
71030;Laerm;63723;51.436;5.976;2023-11-21T00:49:26;49.50;48.50;52.25;;
71030;Laerm;63723;51.436;5.976;2023-11-21T00:49:38;49.50;48.43;51.76;;
71030;Laerm;63723;51.436;5.976;2023-11-21T00:49:49;49.49;48.44;51.10;;
71030;Laerm;63723;51.436;5.976;2023-11-21T00:49:59;49.47;48.53;50.53;;
71030;Laerm;63723;51.436;5.976;2023-11-21T00:50:09;49.41;48.53;50.36;;
71030;Laerm;63723;51.436;5.976;2023-11-21T00:50:22;49.48;48.26;50.47;;
71030;Laerm;63723;51.436;5.976;2023-11-21T00:50:32;49.47;48.01;50.59;;
71030;Laerm;63723;51.436;5.976;2023-11-21T00:50:42;49.51;48.46;50.88;;
71030;Laerm;63723;51.436;5.976;2023-11-21T00:50:53;49.47;48.11;50.44;;
71030;Laerm;63723;51.436;5.976;2023-11-21T00:51:03;49.49;48.40;50.80;;
71030;Laerm;63723;51.436;5.976;2023-11-21T00:51:14;49.51;48.37;50.69;;
71030;Laerm;63723;51.436;5.976;2023-11-21T00:51:24;49.44;48.38;50.77;;
71030;Laerm;63723;51.436;5.976;2023-11-21T00:51:35;49.47;48.43;50.78;;
71030;Laerm;63723;51.436;5.976;2023-11-21T00:51:45;49.51;48.40;51.97;;
71030;Laerm;63723;51.436;5.976;2023-11-21T00:51:56;49.44;48.00;50.61;;
71030;Laerm;63723;51.436;5.976;2023-11-21T00:52:08;49.47;48.30;51.27;;
71030;Laerm;63723;51.436;5.976;2023-11-21T00:52:18;49.40;48.45;50.89;;
71030;Laerm;63723;51.436;5.976;2023-11-21T00:52:28;49.48;48.54;50.56;;
71030;Laerm;63723;51.436;5.976;2023-11-21T00:52:38;49.45;48.45;50.50;;
71030;Laerm;63723;51.436;5.976;2023-11-21T00:52:49;49.47;48.30;50.51;;
71030;Laerm;63723;51.436;5.976;2023-11-21T00:52:59;49.47;48.50;50.67;;
71030;Laerm;63723;51.436;5.976;2023-11-21T00:53:10;49.59;48.43;52.78;;
71030;Laerm;63723;51.436;5.976;2023-11-21T00:53:21;49.51;48.32;50.71;;
71030;Laerm;63723;51.436;5.976;2023-11-21T00:53:31;49.51;48.38;54.11;;
71030;Laerm;63723;51.436;5.976;2023-11-21T00:53:41;49.51;48.32;50.65;;
71030;Laerm;63723;51.436;5.976;2023-11-21T00:53:52;49.45;48.45;50.52;;
71030;Laerm;63723;51.436;5.976;2023-11-21T00:54:02;49.52;48.57;51.10;;
71030;Laerm;63723;51.436;5.976;2023-11-21T00:54:12;49.54;48.09;50.66;;
71030;Laerm;63723;51.436;5.976;2023-11-21T00:54:22;49.51;48.33;51.00;;
71030;Laerm;63723;51.436;5.976;2023-11-21T00:54:33;49.50;48.37;50.38;;
71030;Laerm;63723;51.436;5.976;2023-11-21T00:54:43;49.55;48.54;52.20;;
71030;Laerm;63723;51.436;5.976;2023-11-21T00:54:54;49.50;48.17;50.82;;
71030;Laerm;63723;51.436;5.976;2023-11-21T00:55:05;49.50;48.41;51.70;;
71030;Laerm;63723;51.436;5.976;2023-11-21T00:55:17;49.49;48.41;50.45;;
71030;Laerm;63723;51.436;5.976;2023-11-21T00:55:28;49.56;48.38;50.76;;
71030;Laerm;63723;51.436;5.976;2023-11-21T00:55:39;49.54;48.54;51.39;;
71030;Laerm;63723;51.436;5.976;2023-11-21T00:55:50;49.55;48.55;50.86;;
71030;Laerm;63723;51.436;5.976;2023-11-21T00:56:02;49.54;48.61;51.29;;
71030;Laerm;63723;51.436;5.976;2023-11-21T00:56:12;49.55;48.37;50.61;;
71030;Laerm;63723;51.436;5.976;2023-11-21T00:56:23;49.51;48.58;50.57;;
71030;Laerm;63723;51.436;5.976;2023-11-21T00:56:33;49.57;48.32;53.60;;
71030;Laerm;63723;51.436;5.976;2023-11-21T00:56:44;49.50;48.60;50.83;;
71030;Laerm;63723;51.436;5.976;2023-11-21T00:56:54;49.57;48.36;53.08;;
71030;Laerm;63723;51.436;5.976;2023-11-21T00:57:04;49.53;48.41;50.83;;
71030;Laerm;63723;51.436;5.976;2023-11-21T00:57:14;49.61;48.57;51.86;;
71030;Laerm;63723;51.436;5.976;2023-11-21T00:57:25;49.55;48.48;51.74;;
71030;Laerm;63723;51.436;5.976;2023-11-21T00:57:35;49.57;48.65;52.10;;
71030;Laerm;63723;51.436;5.976;2023-11-21T00:57:46;49.52;48.35;50.41;;
71030;Laerm;63723;51.436;5.976;2023-11-21T00:57:56;49.51;48.50;50.54;;
71030;Laerm;63723;51.436;5.976;2023-11-21T00:58:06;49.55;48.43;50.90;;
71030;Laerm;63723;51.436;5.976;2023-11-21T00:58:16;49.52;48.51;50.59;;
71030;Laerm;63723;51.436;5.976;2023-11-21T00:58:27;49.55;48.42;50.93;;
71030;Laerm;63723;51.436;5.976;2023-11-21T00:58:37;49.52;48.53;50.46;;
71030;Laerm;63723;51.436;5.976;2023-11-21T00:58:47;49.59;48.32;51.89;;
71030;Laerm;63723;51.436;5.976;2023-11-21T00:59:00;49.57;48.61;52.76;;
71030;Laerm;63723;51.436;5.976;2023-11-21T00:59:10;49.46;48.23;50.36;;
71030;Laerm;63723;51.436;5.976;2023-11-21T00:59:21;49.57;48.55;50.52;;
71030;Laerm;63723;51.436;5.976;2023-11-21T00:59:33;49.56;48.32;50.78;;